createdAt,value
2023-11-15T00:00:10.364Z,100986.03
2023-11-15T00:02:39.705Z,101069.25
2023-11-15T00:05:10.377Z,100958.91
2023-11-15T00:07:38.812Z,101031.94
2023-11-15T00:10:08.209Z,101076.56
2023-11-15T00:12:36.666Z,101087.66
2023-11-15T00:15:05.778Z,101039.03
2023-11-15T00:17:34.288Z,101045.97
2023-11-15T00:20:05.106Z,100945.28
2023-11-15T00:22:34.939Z,101043.31
2023-11-15T00:25:03.260Z,101048.69
2023-11-15T00:27:32.744Z,101094.34
2023-11-15T00:30:02.074Z,101078.72
2023-11-15T00:32:30.781Z,101089.91
2023-11-15T00:34:59.140Z,101092.81
2023-11-15T00:37:28.035Z,101053.00
2023-11-15T00:39:59.511Z,101061.81
2023-11-15T00:42:27.948Z,101105.13
2023-11-15T00:44:56.418Z,101032.13
2023-11-15T00:47:24.907Z,101104.81
2023-11-15T00:49:53.320Z,101087.91
2023-11-15T00:52:21.652Z,101092.75
2023-11-15T00:54:49.915Z,101061.84
2023-11-15T00:57:19.682Z,101029.66
2023-11-15T00:59:54.273Z,101107.78
2023-11-15T01:02:22.954Z,101110.75
2023-11-15T01:04:52.214Z,101065.31
2023-11-15T01:07:20.812Z,101020.00
2023-11-15T01:09:49.488Z,101126.81
2023-11-15T01:12:19.659Z,101055.53
2023-11-15T01:14:48.202Z,101096.97
2023-11-15T01:17:16.682Z,101152.75
2023-11-15T01:19:46.180Z,101146.13
2023-11-15T01:22:14.672Z,101136.91
2023-11-15T01:24:43.197Z,101082.13
2023-11-15T01:27:12.432Z,101124.91
2023-11-15T01:29:42.096Z,101164.34
2023-11-15T01:32:10.491Z,101171.50
2023-11-15T01:34:38.943Z,101142.03
2023-11-15T01:37:07.336Z,101130.06
2023-11-15T01:39:35.713Z,101166.56
2023-11-15T01:42:04.572Z,101068.44
2023-11-15T01:44:35.310Z,101150.94
2023-11-15T01:47:05.988Z,101196.16
2023-11-15T01:49:34.553Z,101157.59
2023-11-15T01:52:02.939Z,101175.31
2023-11-15T01:54:32.002Z,101123.00
2023-11-15T01:57:00.470Z,101101.53
2023-11-15T01:59:29.290Z,101187.19
2023-11-15T02:01:57.653Z,101175.31
2023-11-15T02:04:27.766Z,101213.66
2023-11-15T02:06:57.026Z,101228.03
2023-11-15T02:09:26.094Z,101235.31
2023-11-15T02:11:54.902Z,101234.78
2023-11-15T02:14:23.565Z,101184.31
2023-11-15T02:16:53.229Z,101054.50
2023-11-15T02:19:21.882Z,101245.84
2023-11-15T02:21:53.365Z,101200.97
2023-11-15T02:24:23.195Z,101214.09
2023-11-15T02:26:51.824Z,101252.69
2023-11-15T02:29:20.231Z,101251.41
2023-11-15T02:31:48.594Z,101256.25
2023-11-15T02:34:17.043Z,101262.63
2023-11-15T02:36:45.358Z,101138.25
2023-11-15T02:39:14.125Z,101260.31
2023-11-15T02:41:44.044Z,101065.94
2023-11-15T02:44:12.427Z,101250.75
2023-11-15T02:46:40.873Z,101192.91
2023-11-15T02:49:09.323Z,101082.59
2023-11-15T02:51:37.825Z,101271.25
2023-11-15T02:54:06.456Z,101110.63
2023-11-15T02:56:34.798Z,101150.25
2023-11-15T02:59:04.621Z,101235.59
2023-11-15T03:01:33.181Z,101111.44
2023-11-15T03:04:01.595Z,101143.91
2023-11-15T03:06:31.959Z,101271.50
2023-11-15T03:09:00.329Z,101221.59
2023-11-15T03:11:28.865Z,101215.81
2023-11-15T03:13:57.991Z,101156.22
2023-11-15T03:16:27.883Z,101155.84
2023-11-15T03:18:56.375Z,101195.91
2023-11-15T03:21:24.798Z,101226.50
2023-11-15T03:23:53.290Z,101284.91
2023-11-15T03:26:21.793Z,101164.63
2023-11-15T03:28:50.264Z,101286.63
2023-11-15T03:31:18.750Z,101243.28
2023-11-15T03:33:49.419Z,101181.22
2023-11-15T03:36:18.002Z,101302.34
2023-11-15T03:38:46.522Z,101270.53
2023-11-15T03:41:15.156Z,101303.75
2023-11-15T03:43:43.759Z,101270.09
2023-11-15T03:46:12.309Z,101307.75
2023-11-15T03:48:40.911Z,101304.00
2023-11-15T03:51:10.714Z,101271.75
2023-11-15T03:53:39.792Z,101212.50
2023-11-15T03:56:11.173Z,101302.41
2023-11-15T03:58:39.653Z,101296.28
2023-11-15T04:01:09.228Z,101315.25
2023-11-15T04:03:37.874Z,101273.19
2023-11-15T04:06:09.111Z,101313.03
2023-11-15T04:08:38.980Z,101141.34
2023-11-15T04:11:07.656Z,101334.22
2023-11-15T04:13:37.374Z,101145.81
2023-11-15T04:16:07.325Z,101154.44
2023-11-15T04:18:36.928Z,101330.78
2023-11-15T04:21:06.271Z,101338.25
2023-11-15T04:23:34.725Z,101198.41
2023-11-15T04:26:04.976Z,101310.59
2023-11-15T04:28:34.653Z,101277.38
2023-11-15T04:31:03.991Z,101342.03
2023-11-15T04:33:32.483Z,101295.59
2023-11-15T04:36:01.069Z,101326.44
2023-11-15T04:38:29.562Z,101303.63
2023-11-15T04:40:58.073Z,101335.41
2023-11-15T04:43:27.843Z,101242.94
2023-11-15T04:45:56.300Z,101214.66
2023-11-15T04:48:24.778Z,101321.97
2023-11-15T04:50:53.202Z,101246.72
2023-11-15T04:53:21.597Z,101286.69
2023-11-15T04:55:49.962Z,101369.34
2023-11-15T04:58:18.272Z,101302.28
2023-11-15T05:00:48.071Z,101380.16
2023-11-15T05:03:16.526Z,101367.66
2023-11-15T05:05:47.258Z,101319.16
2023-11-15T05:08:15.781Z,101378.00
2023-11-15T05:10:44.158Z,101303.06
2023-11-15T05:13:12.704Z,101307.25
2023-11-15T05:15:41.777Z,101325.31
2023-11-15T05:18:11.615Z,101317.78
2023-11-15T05:20:40.010Z,101324.22
2023-11-15T05:23:08.446Z,101366.94
2023-11-15T05:25:37.228Z,101266.06
2023-11-15T05:28:06.770Z,101234.78
2023-11-15T05:30:35.260Z,101389.88
2023-11-15T05:33:03.752Z,101392.38
2023-11-15T05:35:33.576Z,101337.72
2023-11-15T05:38:02.126Z,101402.03
2023-11-15T05:40:30.600Z,101404.88
2023-11-15T05:42:58.963Z,101320.34
2023-11-15T05:45:27.487Z,101302.28
2023-11-15T05:47:55.933Z,101335.78
2023-11-15T05:50:24.354Z,101394.25
2023-11-15T05:52:54.677Z,101340.38
2023-11-15T05:55:23.097Z,101397.88
2023-11-15T05:57:51.542Z,101368.72
2023-11-15T06:00:21.506Z,101250.44
2023-11-15T06:02:51.208Z,101419.34
2023-11-15T06:05:21.370Z,101428.28
2023-11-15T06:07:49.760Z,101405.91
2023-11-15T06:10:19.856Z,101354.84
2023-11-15T06:12:48.296Z,101428.44
2023-11-15T06:15:16.938Z,101291.19
2023-11-15T06:17:45.505Z,101427.84
2023-11-15T06:20:14.933Z,101429.13
2023-11-15T06:22:43.237Z,101266.28
2023-11-15T06:25:11.842Z,101432.69
2023-11-15T06:27:41.533Z,101404.22
2023-11-15T06:30:11.182Z,101336.34
2023-11-15T06:32:40.720Z,101445.06
2023-11-15T06:35:10.532Z,101405.22
2023-11-15T06:37:39.271Z,101433.66
2023-11-15T06:40:10.808Z,101357.50
2023-11-15T06:42:39.113Z,101436.72
2023-11-15T06:45:10.887Z,101456.72
2023-11-15T06:47:39.414Z,101457.38
2023-11-15T06:50:09.503Z,101464.00
2023-11-15T06:52:40.075Z,101442.22
2023-11-15T06:55:12.166Z,101371.41
2023-11-15T06:57:42.866Z,101477.16
2023-11-15T07:00:15.009Z,101445.97
2023-11-15T07:02:43.639Z,101503.84
2023-11-15T07:05:12.721Z,101516.47
2023-11-15T07:07:41.453Z,101396.31
2023-11-15T07:10:11.313Z,101431.19
2023-11-15T07:12:41.633Z,101493.97
2023-11-15T07:15:15.340Z,101376.28
2023-11-15T07:17:44.052Z,101401.00
2023-11-15T07:20:14.685Z,101508.78
2023-11-15T07:22:43.029Z,101521.25
2023-11-15T07:25:14.069Z,101516.78
2023-11-15T07:27:42.478Z,101379.94
2023-11-15T07:30:15.455Z,101405.75
2023-11-15T07:32:44.139Z,101361.00
2023-11-15T07:35:12.501Z,101355.41
2023-11-15T07:37:41.930Z,101476.63
2023-11-15T07:40:14.362Z,101438.97
2023-11-15T07:42:43.028Z,101460.06
2023-11-15T07:45:13.284Z,101539.91
2023-11-15T07:47:45.053Z,101464.06
2023-11-15T07:50:16.377Z,101536.66
2023-11-15T07:52:46.420Z,101419.44
2023-11-15T07:55:16.523Z,101527.69
2023-11-15T07:57:45.078Z,101407.66
2023-11-15T08:00:16.951Z,101476.25
2023-11-15T08:02:45.960Z,101495.47
2023-11-15T08:05:14.618Z,101427.53
2023-11-15T08:07:43.079Z,101410.28
2023-11-15T08:10:14.495Z,101565.78
2023-11-15T08:12:45.519Z,101487.44
2023-11-15T08:15:15.770Z,101571.91
2023-11-15T08:17:44.775Z,101511.78
2023-11-15T08:20:13.823Z,101404.44
2023-11-15T08:22:43.157Z,101572.34
2023-11-15T08:25:12.531Z,101400.63
2023-11-15T08:27:41.831Z,101468.41
2023-11-15T08:30:14.136Z,101460.81
2023-11-15T08:32:44.250Z,101525.59
2023-11-15T08:35:15.741Z,101517.31
2023-11-15T08:37:44.100Z,101552.53
2023-11-15T08:40:23.196Z,101554.91
2023-11-15T08:42:58.121Z,101590.16
2023-11-15T08:45:26.825Z,101596.47
2023-11-15T08:47:58.956Z,101573.69
2023-11-15T08:50:28.630Z,101497.44
2023-11-15T08:52:57.667Z,101499.78
2023-11-15T08:55:26.142Z,101562.47
2023-11-15T08:57:54.710Z,101469.88
2023-11-15T09:00:25.588Z,101519.81
2023-11-15T09:02:54.131Z,101545.25
2023-11-15T09:05:25.069Z,101582.06
2023-11-15T09:07:54.603Z,101589.47
2023-11-15T09:10:24.384Z,101527.06
2023-11-15T09:12:53.894Z,101606.88
2023-11-15T09:15:25.587Z,101586.81
2023-11-15T09:17:54.224Z,101556.22
2023-11-15T09:20:28.850Z,101573.47
2023-11-15T09:22:59.384Z,101603.38
2023-11-15T09:25:28.308Z,101541.16
2023-11-15T09:28:03.921Z,101600.13
2023-11-15T09:30:33.043Z,101585.09
2023-11-15T09:33:04.741Z,101541.03
2023-11-15T09:38:06.321Z,101596.34
2023-11-15T09:40:34.600Z,101568.97
2023-11-15T09:43:03.746Z,101583.69
2023-11-15T09:45:34.599Z,101574.72
2023-11-15T09:48:05.645Z,101599.72
2023-11-15T09:50:37.521Z,101608.88
2023-11-15T09:53:07.481Z,101607.84
2023-11-15T09:55:36.172Z,101584.84
2023-11-15T09:58:05.201Z,101610.97
2023-11-15T10:00:33.850Z,101593.69
2023-11-15T10:03:02.882Z,101582.28
2023-11-15T10:05:33.422Z,101530.72
2023-11-15T10:08:16.584Z,101604.63
2023-11-15T10:10:48.919Z,101604.47
2023-11-15T10:13:22.293Z,101605.97
2023-11-15T10:15:52.150Z,101585.13
2023-11-15T10:18:33.390Z,101569.66
2023-11-15T10:21:13.194Z,101500.13
2023-11-15T10:23:43.503Z,101623.91
2023-11-15T10:26:12.761Z,101596.44
2023-11-15T10:28:41.680Z,101587.44
2023-11-15T10:31:14.807Z,101632.50
2023-11-15T10:33:47.213Z,101629.41
2023-11-15T10:36:18.892Z,101605.88
2023-11-15T10:38:51.597Z,101608.47
2023-11-15T10:41:22.454Z,101453.06
2023-11-15T10:43:52.498Z,101615.66
2023-11-15T10:46:27.986Z,101549.34
2023-11-15T10:48:58.479Z,101635.44
2023-11-15T10:51:31.146Z,101631.63
2023-11-15T10:54:02.410Z,101546.44
2023-11-15T10:56:34.285Z,101619.72
2023-11-15T10:59:05.515Z,101518.28
2023-11-15T11:01:35.485Z,101627.09
2023-11-15T11:04:11.792Z,101614.72
2023-11-15T11:06:48.967Z,101627.94
2023-11-15T11:09:24.829Z,101539.72
2023-11-15T11:12:01.152Z,101601.56
2023-11-15T11:14:29.674Z,101544.25
2023-11-15T11:16:58.531Z,101628.91
2023-11-15T11:19:28.025Z,101612.63
2023-11-15T11:22:09.005Z,101550.00
2023-11-15T11:24:43.889Z,101574.16
2023-11-15T11:27:32.746Z,101556.13
2023-11-15T11:30:22.144Z,101640.06
2023-11-15T11:32:51.938Z,101667.38
2023-11-15T11:35:37.589Z,101626.38
2023-11-15T11:38:06.209Z,101626.84
2023-11-15T11:40:40.647Z,101560.03
2023-11-15T11:43:23.212Z,101533.97
2023-11-15T11:45:55.227Z,101552.88
2023-11-15T11:48:26.537Z,101513.22
2023-11-15T11:51:01.829Z,101528.69
2023-11-15T11:53:30.196Z,101554.25
2023-11-15T11:55:59.871Z,101530.34
2023-11-15T11:58:30.815Z,101597.19
2023-11-15T12:01:04.730Z,101533.19
2023-11-15T12:03:36.933Z,101631.19
2023-11-15T12:06:12.378Z,101579.78
2023-11-15T12:08:48.726Z,101640.00
2023-11-15T12:11:23.624Z,101565.19
2023-11-15T12:13:54.022Z,101643.34
2023-11-15T12:16:25.068Z,101614.38
2023-11-15T12:19:07.221Z,101629.69
2023-11-15T12:21:38.886Z,101652.69
2023-11-15T12:24:11.406Z,101625.41
2023-11-15T12:26:47.676Z,101602.38
2023-11-15T12:29:24.516Z,101648.75
2023-11-15T12:31:55.887Z,101659.75
2023-11-15T12:34:25.662Z,101570.53
2023-11-15T12:36:54.760Z,101656.50
2023-11-15T12:39:24.007Z,101658.31
2023-11-15T12:41:59.348Z,101655.69
2023-11-15T12:44:27.874Z,101585.41
2023-11-15T12:46:59.350Z,101676.50
2023-11-15T12:49:28.989Z,101621.28
2023-11-15T12:51:57.456Z,101575.25
2023-11-15T12:54:25.904Z,101546.06
2023-11-15T12:57:08.842Z,101671.41
2023-11-15T12:59:39.029Z,101597.31
2023-11-15T13:02:08.125Z,101638.00
2023-11-15T13:04:47.886Z,101600.69
2023-11-15T13:07:16.787Z,101672.97
2023-11-15T13:09:45.461Z,101645.00
2023-11-15T13:12:26.978Z,101664.50
2023-11-15T13:14:56.538Z,101650.41
2023-11-15T13:17:28.248Z,101563.47
2023-11-15T13:20:00.608Z,101625.84
2023-11-15T13:22:31.240Z,101529.94
2023-11-15T13:24:59.623Z,101677.72
2023-11-15T13:27:29.440Z,101672.13
2023-11-15T13:29:58.198Z,101589.84
2023-11-15T13:32:26.720Z,101563.91
2023-11-15T13:34:55.475Z,101686.84
2023-11-15T13:37:25.547Z,101675.81
2023-11-15T13:39:53.803Z,101685.63
2023-11-15T13:42:22.377Z,101566.59
2023-11-15T13:44:52.182Z,101540.44
2023-11-15T13:47:20.530Z,101686.13
2023-11-15T13:49:49.113Z,101568.38
2023-11-15T13:52:17.762Z,101570.44
2023-11-15T13:54:47.609Z,101623.44
2023-11-15T13:57:18.818Z,101608.69
2023-11-15T13:59:48.204Z,101653.50
2023-11-15T14:02:18.388Z,101674.31
2023-11-15T14:04:46.709Z,101699.63
2023-11-15T14:07:17.172Z,101698.59
2023-11-15T14:09:46.818Z,101695.03
2023-11-15T14:12:15.743Z,101718.25
2023-11-15T14:14:45.442Z,101710.00
2023-11-15T14:17:14.100Z,101714.00
2023-11-15T14:19:43.926Z,101672.31
2023-11-15T14:22:13.159Z,101710.97
2023-11-15T14:24:41.730Z,101721.78
2023-11-15T14:27:12.832Z,101651.53
2023-11-15T14:29:42.888Z,101720.41
2023-11-15T14:32:17.268Z,101663.06
2023-11-15T14:34:47.190Z,101693.97
2023-11-15T14:37:16.218Z,101710.00
2023-11-15T14:39:44.591Z,101551.88
2023-11-15T14:42:13.314Z,101717.16
2023-11-15T14:44:42.311Z,101717.16
2023-11-15T14:47:10.953Z,101723.47
2023-11-15T14:49:39.366Z,101731.31
2023-11-15T14:52:12.028Z,101743.13
2023-11-15T14:54:47.141Z,101735.84
2023-11-15T14:57:16.512Z,101700.72
2023-11-15T14:59:47.853Z,101752.00
2023-11-15T15:02:18.609Z,101737.75
2023-11-15T15:04:49.293Z,101744.94
2023-11-15T15:07:20.310Z,101745.63
2023-11-15T15:09:48.755Z,101673.66
2023-11-15T15:12:18.981Z,101666.03
2023-11-15T15:14:47.979Z,101760.97
2023-11-15T15:17:23.678Z,101685.56
2023-11-15T15:19:55.416Z,101751.56
2023-11-15T15:22:26.815Z,101744.69
2023-11-15T15:24:55.426Z,101700.69
2023-11-15T15:27:23.959Z,101706.69
2023-11-15T15:29:52.475Z,101684.44
2023-11-15T15:32:20.801Z,101735.03
2023-11-15T15:34:49.118Z,101767.72
2023-11-15T15:37:17.427Z,101755.25
2023-11-15T15:39:47.145Z,101707.28
2023-11-15T15:42:15.470Z,101744.50
2023-11-15T15:44:43.796Z,101650.47
2023-11-15T15:47:12.128Z,101646.38
2023-11-15T15:49:46.348Z,101689.09
2023-11-15T15:52:15.744Z,101771.88
2023-11-15T15:54:44.738Z,101691.69
2023-11-15T15:57:15.112Z,101777.91
2023-11-15T15:59:43.695Z,101742.69
2023-11-15T16:02:12.310Z,101773.75
2023-11-15T16:04:42.800Z,101778.41
2023-11-15T16:07:11.771Z,101631.72
2023-11-15T16:09:42.727Z,101720.38
2023-11-15T16:12:11.612Z,101773.13
2023-11-15T16:14:41.428Z,101706.59
2023-11-15T16:17:09.848Z,101665.19
2023-11-15T16:19:38.224Z,101702.13
2023-11-15T16:22:06.579Z,101782.88
2023-11-15T16:24:34.928Z,101678.25
2023-11-15T16:27:04.584Z,101724.09
2023-11-15T16:29:34.294Z,101691.28
2023-11-15T16:32:04.270Z,101745.00
2023-11-15T16:34:33.072Z,101580.97
2023-11-15T16:37:01.808Z,101784.22
2023-11-15T16:39:30.076Z,101586.16
2023-11-15T16:42:00.366Z,101774.56
2023-11-15T16:44:30.901Z,101791.50
2023-11-15T16:47:00.593Z,101787.56
2023-11-15T16:49:30.427Z,101795.09
2023-11-15T16:52:00.801Z,101718.63
2023-11-15T16:54:31.283Z,101775.09
2023-11-15T16:57:01.331Z,101798.06
2023-11-15T16:59:29.691Z,101655.94
2023-11-15T17:01:58.097Z,101680.94
2023-11-15T17:04:26.520Z,101795.63
2023-11-15T17:06:57.455Z,101800.97
2023-11-15T17:09:26.054Z,101784.91
2023-11-15T17:11:54.471Z,101791.16
2023-11-15T17:14:23.191Z,101712.97
2023-11-15T17:16:51.625Z,101703.91
2023-11-15T17:19:21.026Z,101806.06
2023-11-15T17:21:49.415Z,101815.03
2023-11-15T17:24:20.192Z,101819.38
2023-11-15T17:26:49.033Z,101818.41
2023-11-15T17:29:17.424Z,101819.97
2023-11-15T17:31:46.032Z,101702.94
2023-11-15T17:34:15.394Z,101745.09
2023-11-15T17:36:44.804Z,101813.91
2023-11-15T17:39:15.657Z,101737.59
2023-11-15T17:41:45.478Z,101833.25
2023-11-15T17:44:16.056Z,101809.16
2023-11-15T17:46:44.707Z,101793.59
2023-11-15T17:49:13.986Z,101704.13
2023-11-15T17:51:45.336Z,101767.06
2023-11-15T17:54:15.600Z,101627.56
2023-11-15T17:56:46.449Z,101790.25
2023-11-15T17:59:15.171Z,101719.34
2023-11-15T18:01:44.125Z,101644.72
2023-11-15T18:04:16.310Z,101769.00
2023-11-15T18:06:45.309Z,101788.22
2023-11-15T18:09:13.882Z,101817.16
2023-11-15T18:11:42.586Z,101775.19
2023-11-15T18:14:12.633Z,101800.69
2023-11-15T18:16:40.990Z,101693.38
2023-11-15T18:19:10.109Z,101807.44
2023-11-15T18:21:41.540Z,101798.94
2023-11-15T18:24:12.613Z,101784.84
2023-11-15T18:26:43.229Z,101814.09
2023-11-15T18:29:13.051Z,101768.31
2023-11-15T18:31:41.639Z,101685.69
2023-11-15T18:34:10.763Z,101790.03
2023-11-15T18:36:42.569Z,101747.50
2023-11-15T18:39:15.799Z,101797.31
2023-11-15T18:41:45.639Z,101813.72
2023-11-15T18:44:17.496Z,101806.22
2023-11-15T18:46:53.509Z,101827.28
2023-11-15T18:49:24.178Z,101820.09
2023-11-15T18:51:53.929Z,101793.56
2023-11-15T18:54:23.287Z,101825.09
2023-11-15T18:56:53.301Z,101826.31
2023-11-15T18:59:23.475Z,101810.97
2023-11-15T19:01:51.848Z,101838.66
2023-11-15T19:04:20.535Z,101828.88
2023-11-15T19:06:50.804Z,101826.28
2023-11-15T19:09:23.323Z,101847.59
2023-11-15T19:11:56.574Z,101757.97
2023-11-15T19:14:29.775Z,101813.16
2023-11-15T19:17:01.205Z,101742.50
2023-11-15T19:19:29.907Z,101792.16
2023-11-15T19:21:58.393Z,101793.41
2023-11-15T19:24:26.945Z,101756.94
2023-11-15T19:26:55.490Z,101782.41
2023-11-15T19:29:23.985Z,101707.88
2023-11-15T19:31:53.976Z,101811.91
2023-11-15T19:34:24.385Z,101726.88
2023-11-15T19:36:53.783Z,101741.97
2023-11-15T19:39:22.226Z,101846.97
2023-11-15T19:41:51.820Z,101842.03
2023-11-15T19:44:20.197Z,101822.16
2023-11-15T19:46:48.864Z,101669.50
2023-11-15T19:49:20.766Z,101670.69
2023-11-15T19:51:53.008Z,101800.28
2023-11-15T19:54:22.086Z,101825.13
2023-11-15T19:56:51.174Z,101753.56
2023-11-15T19:59:19.618Z,101771.88
2023-11-15T20:01:48.298Z,101627.44
2023-11-15T20:04:20.570Z,101608.59
2023-11-15T20:06:49.428Z,101662.19
2023-11-15T20:09:17.776Z,101602.34
2023-11-15T20:11:47.927Z,101825.84
2023-11-15T20:14:16.451Z,101825.00
2023-11-15T20:16:44.828Z,101800.88
2023-11-15T20:19:14.148Z,101673.28
2023-11-15T20:21:43.920Z,101696.22
2023-11-15T20:24:12.441Z,101786.84
2023-11-15T20:26:42.181Z,101683.38
2023-11-15T20:29:11.683Z,101771.13
2023-11-15T20:31:40.222Z,101603.16
2023-11-15T20:34:09.100Z,101614.97
2023-11-15T20:36:38.691Z,101697.97
2023-11-15T20:39:21.609Z,101689.91
2023-11-15T20:41:53.674Z,101653.84
2023-11-15T20:44:22.343Z,101797.47
2023-11-15T20:46:50.905Z,101704.38
2023-11-15T20:49:19.412Z,101766.84
2023-11-15T20:51:49.099Z,101801.88
2023-11-15T20:54:22.106Z,101750.78
2023-11-15T20:56:50.570Z,101823.97
2023-11-15T20:59:19.322Z,101778.16
2023-11-15T21:01:48.352Z,101823.25
2023-11-15T21:04:21.153Z,101739.16
2023-11-15T21:06:52.017Z,101808.84
2023-11-15T21:09:24.827Z,101808.53
2023-11-15T21:11:54.821Z,101696.03
2023-11-15T21:14:23.338Z,101713.66
2023-11-15T21:16:51.842Z,101622.59
2023-11-15T21:19:20.477Z,101711.66
2023-11-15T21:21:47.837Z,101686.78
2023-11-15T21:24:16.513Z,101684.06
2023-11-15T21:26:46.809Z,101740.06
2023-11-15T21:29:15.235Z,101691.97
2023-11-15T21:31:43.961Z,101715.66
2023-11-15T21:34:12.491Z,101797.94
2023-11-15T21:36:41.288Z,101627.19
2023-11-15T21:39:10.742Z,101792.41
2023-11-15T21:41:39.442Z,101651.97
2023-11-15T21:44:09.536Z,101739.09
2023-11-15T21:46:38.290Z,101789.13
2023-11-15T21:49:06.920Z,101827.03
2023-11-15T21:51:35.233Z,101699.31
2023-11-15T21:54:03.832Z,101826.84
2023-11-15T21:56:33.115Z,101753.28
2023-11-15T21:59:01.490Z,101790.56
2023-11-15T22:01:31.331Z,101713.84
2023-11-15T22:03:59.716Z,101822.47
2023-11-15T22:06:28.189Z,101704.13
2023-11-15T22:08:56.563Z,101714.72
2023-11-15T22:11:25.000Z,101757.41
2023-11-15T22:13:53.394Z,101724.94
2023-11-15T22:16:21.973Z,101826.31
2023-11-15T22:18:51.724Z,101760.16
2023-11-15T22:21:20.149Z,101783.59
2023-11-15T22:23:50.989Z,101799.34
2023-11-15T22:26:19.305Z,101796.50
2023-11-15T22:28:47.810Z,101800.59
2023-11-15T22:31:16.238Z,101784.84
2023-11-15T22:33:44.639Z,101775.91
2023-11-15T22:36:16.288Z,101770.75
2023-11-15T22:38:45.456Z,101722.47
2023-11-15T22:41:13.870Z,101747.59
2023-11-15T22:43:42.438Z,101718.53
2023-11-15T22:46:10.894Z,101830.41
2023-11-15T22:48:39.321Z,101833.22
2023-11-15T22:51:08.788Z,101827.34
2023-11-15T22:53:39.855Z,101814.09
2023-11-15T22:56:10.155Z,101829.06
2023-11-15T22:58:38.532Z,101833.56
2023-11-15T23:01:07.212Z,101773.50
2023-11-15T23:03:35.997Z,101843.34
2023-11-15T23:06:06.968Z,101753.66
2023-11-15T23:08:35.319Z,101840.16
2023-11-15T23:11:05.532Z,101716.94
2023-11-15T23:13:33.946Z,101805.09
2023-11-15T23:16:02.263Z,101802.44
2023-11-15T23:18:30.778Z,101774.53
2023-11-15T23:20:59.893Z,101612.72
2023-11-15T23:23:28.329Z,101708.94
2023-11-15T23:25:56.917Z,101843.50
2023-11-15T23:28:27.997Z,101744.53
2023-11-15T23:30:56.979Z,101825.19
2023-11-15T23:33:25.604Z,101836.81
2023-11-15T23:35:54.436Z,101718.34
2023-11-15T23:38:25.885Z,101827.72
2023-11-15T23:40:54.956Z,101740.69
2023-11-15T23:43:23.277Z,101802.28
2023-11-15T23:45:53.371Z,101703.13
2023-11-15T23:48:22.167Z,101838.50
2023-11-15T23:50:50.863Z,101793.84
2023-11-15T23:53:19.274Z,101662.81
2023-11-15T23:55:47.724Z,101824.50
2023-11-15T23:58:17.278Z,101743.91
